Aeroporto :
LOGIN :

Iscrizione | Disclaimer

   EN    FR    IT 

 










Sommario :    VFR   VFR Marginale   IFR   IFR Intensivo   IFR Molto Intensivo
Visibilità : 
Base nubi : 
>= 8 km
>= 3000ft
5 / 8 km
1000 / 3000 ft
1500m / 5 km
500 / 1000 ft
800 / 1500m
200 / 500 ft
< 800m
< 200 ft
Simboli :   Temporali  Nebbia  Neve Forte  Precipitazioni Forti  Vento > 20 kt
SIGMETs :   Varie  Temporali  Ghiacco  Turbolenza  Onda orograficha  Ceneri Vulcaniche






- Altitudine del aeroporto : 1649 ft
- Codice IATA : HHN


EDFH - Frankfurt-Hahn Rhineland-Palatinate

ULTIMO METAR :
  • 280620Z 26013KT 230V300 9000 SHRA BKN006 03/02 Q0994

METARs OBSOLETI :
  • 280550Z 25008G25KT 200V300 9000 SHRA BKN011CB 03/03 Q0994
  • 280520Z 20018KT 9999 -RA SCT011 SCT017 04/03 Q0994
  • 280450Z 22015G26KT 9999 BKN011 04/03 Q0994
  • 280420Z 23013KT 9999 -RA SCT015 05/03 Q0996

TAF COR TAF EDFH
Valido dal 28 a 06 ore il 29 a 06 ore UTC


280551Z 2806/2906 25020G30KT 9999 BKN015
TEMPO 2806/2816 2500 SHRASN BKN008CB
PROB30
TEMPO 2806/2816 27025G50KT 0800 TSSN BKN008CB
PROB30
TEMPO 2816/2903 1200 SHSN BKN008CB
BECMG 2820/2823 26015G25KT



MetMap, La meteo Aeronautica in un colpo d'occhio ! - Copyright ORBIFLY Dicembre 2007 - Disclaimer

ORBIFLY MET'MAP TEAM :

Programmazione e sviluppo : Alexandra Zaïnal
Concezione : Baudouin d'Aumeries
Aiuto per la programmazione : Marc-Olivier Méhu
Supporto tecnico e logistico : Manuel Goepfert
Aiuto per la traduzione : Arnaldo La Scala

Contatto : metmap@orbifly.com




FONTI E CREDITI :

   NOAA